Time;durP1;ratioP1;P1;durP2;ratioP2;P2;SDS_P1;SDS_P2;PMS_P1;PMS_P2;Temp;Humidity;BMP_temperature;BMP_pressure;BME280_temperature;BME280_humidity;BME280_pressure;Samples;Min_cycle;Max_cycle;Signal;HPM_P1;HPM_P2
2022/11/23 00:00:46;;;;;;;18.00;10.77;;;;;;;;;;5049370;28;20037;-78
2022/11/23 00:03:15;;;;;;;20.02;10.95;;;;;;;;;;5049830;28;20037;-79
2022/11/23 00:05:41;;;;;;;20.98;11.07;;;;;;;;;;5049766;28;20511;-78
2022/11/23 00:08:07;;;;;;;18.98;11.27;;;;;;;;;;5050119;28;20033;-78
2022/11/23 00:10:33;;;;;;;18.27;11.40;;;;;;;;;;5049629;28;20087;-78
2022/11/23 00:12:59;;;;;;;18.63;10.98;;;;;;;;;;5049504;28;20051;-78
2022/11/23 00:15:25;;;;;;;18.23;10.52;;;;;;;;;;5049634;28;20045;-78
2022/11/23 00:17:51;;;;;;;19.95;10.75;;;;;;;;;;5049404;28;20049;-78
2022/11/23 00:20:17;;;;;;;21.10;10.85;;;;;;;;;;5051208;28;20121;-78
2022/11/23 00:22:43;;;;;;;20.95;10.75;;;;;;;;;;5049379;28;20063;-78
2022/11/23 00:25:10;;;;;;;20.90;10.93;;;;;;;;;;5049274;28;20062;-78
2022/11/23 00:27:36;;;;;;;15.98;9.70;;;;;;;;;;5050865;28;20049;-78
2022/11/23 00:30:02;;;;;;;20.55;10.43;;;;;;;;;;5049381;28;20037;-78
2022/11/23 00:32:31;;;;;;;17.25;10.57;;;;;;;;;;5006414;28;1253707;-78
2022/11/23 00:34:57;;;;;;;22.67;10.13;;;;;;;;;;5048655;28;20052;-78
2022/11/23 00:37:23;;;;;;;18.95;11.05;;;;;;;;;;5040120;28;20045;-78
2022/11/23 00:39:49;;;;;;;20.20;10.48;;;;;;;;;;5050161;28;20135;-78
2022/11/23 00:42:15;;;;;;;17.65;10.13;;;;;;;;;;5050745;28;20051;-78
2022/11/23 00:44:41;;;;;;;19.90;10.68;;;;;;;;;;5050455;28;20080;-79
2022/11/23 00:47:07;;;;;;;19.27;9.82;;;;;;;;;;5051894;28;20041;-78
2022/11/23 00:49:33;;;;;;;20.83;10.73;;;;;;;;;;5055238;28;20041;-78
2022/11/23 00:51:59;;;;;;;16.13;9.63;;;;;;;;;;5052940;28;20045;-78
2022/11/23 00:54:25;;;;;;;17.30;10.30;;;;;;;;;;5025482;28;20123;-78
2022/11/23 00:56:51;;;;;;;20.90;9.85;;;;;;;;;;5053592;28;20047;-78
2022/11/23 00:59:17;;;;;;;17.60;9.75;;;;;;;;;;5053915;28;20045;-78
2022/11/23 01:01:43;;;;;;;24.30;10.75;;;;;;;;;;5054558;28;20071;-78
2022/11/23 01:04:09;;;;;;;19.30;9.10;;;;;;;;;;5054085;28;20051;-78
2022/11/23 01:06:37;;;;;;;17.55;10.05;;;;;;;;;;5053911;28;20049;-78
2022/11/23 01:09:04;;;;;;;17.77;10.23;;;;;;;;;;5053549;28;20041;-78
2022/11/23 01:11:31;;;;;;;19.73;10.75;;;;;;;;;;5053453;28;20045;-78
2022/11/23 01:13:57;;;;;;;19.67;10.45;;;;;;;;;;5053162;28;20037;-78
2022/11/23 01:16:27;;;;;;;19.20;10.75;;;;;;;;;;5052664;28;20052;-78
2022/11/23 01:18:58;;;;;;;21.83;9.95;;;;;;;;;;5084093;28;20087;-78
2022/11/23 01:21:26;;;;;;;20.35;10.85;;;;;;;;;;5047174;28;20045;-78
2022/11/23 01:23:52;;;;;;;21.92;10.65;;;;;;;;;;5059761;28;20049;-78
2022/11/23 01:26:18;;;;;;;19.45;9.93;;;;;;;;;;5065043;28;20072;-78
2022/11/23 01:28:44;;;;;;;17.33;10.25;;;;;;;;;;5069721;28;20032;-78
2022/11/23 01:31:14;;;;;;;18.63;11.23;;;;;;;;;;5062628;28;20068;-78
2022/11/23 01:33:41;;;;;;;17.48;10.27;;;;;;;;;;5069613;28;20056;-78
2022/11/23 01:36:15;;;;;;;22.40;11.07;;;;;;;;;;5072569;28;20093;-78
2022/11/23 01:38:41;;;;;;;21.23;11.13;;;;;;;;;;5057187;28;20076;-78
2022/11/23 01:41:08;;;;;;;20.10;11.80;;;;;;;;;;5060642;28;20448;-78
2022/11/23 01:43:34;;;;;;;23.67;11.50;;;;;;;;;;5056477;28;20510;-78
2022/11/23 01:46:01;;;;;;;24.90;11.63;;;;;;;;;;5056035;28;20457;-78
2022/11/23 01:48:31;;;;;;;23.90;12.60;;;;;;;;;;5072879;28;20040;-78
2022/11/23 01:50:58;;;;;;;22.80;12.18;;;;;;;;;;5074002;28;20056;-78
2022/11/23 01:53:26;;;;;;;24.65;12.57;;;;;;;;;;5073220;28;20040;-78
2022/11/23 01:55:54;;;;;;;21.90;12.18;;;;;;;;;;5058029;28;20048;-78
2022/11/23 01:58:22;;;;;;;22.98;12.18;;;;;;;;;;5071715;28;20040;-78
2022/11/23 02:00:48;;;;;;;24.92;12.95;;;;;;;;;;5089415;28;20093;-77
2022/11/23 02:03:15;;;;;;;26.90;12.85;;;;;;;;;;5056016;28;20085;-78
2022/11/23 02:05:43;;;;;;;28.40;13.35;;;;;;;;;;5074063;28;20045;-78
2022/11/23 02:08:11;;;;;;;25.90;13.13;;;;;;;;;;5059469;28;20047;-78
2022/11/23 02:10:37;;;;;;;26.85;14.07;;;;;;;;;;5072541;28;20083;-78
2022/11/23 02:13:04;;;;;;;24.55;13.10;;;;;;;;;;5073207;28;20033;-78
2022/11/23 02:15:31;;;;;;;31.33;14.23;;;;;;;;;;5062462;28;20509;-78
2022/11/23 02:17:59;;;;;;;29.50;14.80;;;;;;;;;;5069477;28;20044;-78
2022/11/23 02:20:25;;;;;;;28.40;14.38;;;;;;;;;;5063599;28;20040;-78
2022/11/23 02:22:58;;;;;;;34.03;15.23;;;;;;;;;;5067883;28;20106;-78
2022/11/23 02:25:34;;;;;;;30.95;14.98;;;;;;;;;;5060209;28;20040;-80
2022/11/23 02:28:01;;;;;;;31.15;14.93;;;;;;;;;;5071865;28;20041;-79
2022/11/23 02:30:28;;;;;;;33.63;15.82;;;;;;;;;;5055734;28;20047;-79
2022/11/23 02:32:55;;;;;;;32.47;15.95;;;;;;;;;;5060668;28;20100;-79
2022/11/23 02:35:21;;;;;;;35.08;16.05;;;;;;;;;;5071537;28;20226;-79
2022/11/23 02:37:48;;;;;;;32.03;15.52;;;;;;;;;;5072599;28;20504;-79
2022/11/23 02:40:27;;;;;;;39.85;16.75;;;;;;;;;;5072421;28;20261;-78
2022/11/23 02:42:53;;;;;;;32.67;16.73;;;;;;;;;;5074178;28;20044;-79
2022/11/23 02:45:38;;;;;;;33.10;17.23;;;;;;;;;;5057703;28;20524;-77
2022/11/23 02:48:04;;;;;;;33.33;15.95;;;;;;;;;;5074203;28;20102;-79
2022/11/23 02:50:31;;;;;;;37.67;17.50;;;;;;;;;;5070065;28;20036;-78
2022/11/23 02:52:57;;;;;;;32.50;16.55;;;;;;;;;;5033518;28;20050;-77
2022/11/23 02:55:23;;;;;;;36.65;17.00;;;;;;;;;;5089132;28;20043;-78
2022/11/23 02:57:49;;;;;;;32.60;15.18;;;;;;;;;;5072025;28;20037;-79
2022/11/23 03:00:15;;;;;;;35.33;17.70;;;;;;;;;;5088308;28;20098;-78
2022/11/23 03:02:42;;;;;;;34.05;17.30;;;;;;;;;;5058540;28;20020;-78
2022/11/23 03:05:08;;;;;;;34.75;17.45;;;;;;;;;;5072134;28;20048;-79
2022/11/23 03:07:34;;;;;;;38.58;17.98;;;;;;;;;;5071956;28;20055;-78
2022/11/23 03:10:00;;;;;;;38.75;18.17;;;;;;;;;;5071346;28;20488;-78
2022/11/23 03:12:26;;;;;;;41.95;19.23;;;;;;;;;;5071849;28;20051;-78
2022/11/23 03:14:52;;;;;;;43.45;19.75;;;;;;;;;;5071689;28;20041;-79
2022/11/23 03:17:18;;;;;;;46.92;20.80;;;;;;;;;;5070720;28;20044;-79
2022/11/23 03:19:44;;;;;;;39.55;20.35;;;;;;;;;;5071755;28;20044;-78
2022/11/23 03:22:10;;;;;;;40.03;20.00;;;;;;;;;;5072969;28;20044;-78
2022/11/23 03:24:36;;;;;;;44.30;20.80;;;;;;;;;;5054469;28;20109;-79
2022/11/23 03:27:02;;;;;;;47.22;20.80;;;;;;;;;;5071240;28;20036;-78
2022/11/23 03:29:28;;;;;;;43.90;21.35;;;;;;;;;;5071680;28;20044;-77
2022/11/23 03:31:55;;;;;;;49.47;21.80;;;;;;;;;;5071145;28;20052;-78
2022/11/23 03:34:21;;;;;;;46.80;21.98;;;;;;;;;;5071429;28;20052;-79
2022/11/23 03:36:48;;;;;;;44.78;21.52;;;;;;;;;;5072403;28;20063;-79
2022/11/23 03:39:14;;;;;;;49.40;21.92;;;;;;;;;;5054728;28;20040;-79
2022/11/23 03:41:40;;;;;;;47.40;21.45;;;;;;;;;;5071188;28;20089;-79
2022/11/23 03:44:06;;;;;;;52.63;23.00;;;;;;;;;;5064003;28;20041;-79
2022/11/23 03:46:32;;;;;;;50.08;23.27;;;;;;;;;;5047507;28;20493;-79
2022/11/23 03:48:58;;;;;;;49.40;22.02;;;;;;;;;;5071316;28;20036;-80
2022/11/23 03:51:25;;;;;;;50.97;22.75;;;;;;;;;;5071263;28;20042;-79
2022/11/23 03:53:51;;;;;;;50.17;22.23;;;;;;;;;;5071800;28;20041;-78
2022/11/23 03:56:17;;;;;;;52.63;22.00;;;;;;;;;;5070492;28;20089;-78
2022/11/23 03:58:43;;;;;;;49.58;23.05;;;;;;;;;;5071056;28;20059;-77
2022/11/23 04:01:09;;;;;;;49.80;23.17;;;;;;;;;;5070986;28;20471;-78
2022/11/23 04:03:35;;;;;;;45.22;24.13;;;;;;;;;;5071940;28;20493;-78
2022/11/23 04:06:01;;;;;;;58.05;25.08;;;;;;;;;;5071198;28;20064;-78
2022/11/23 04:08:27;;;;;;;53.15;23.05;;;;;;;;;;5070544;28;20042;-79
2022/11/23 04:10:56;;;;;;;48.08;21.67;;;;;;;;;;5054420;28;20028;-79
2022/11/23 04:13:23;;;;;;;49.83;23.08;;;;;;;;;;5071054;28;20094;-79
2022/11/23 04:15:49;;;;;;;51.00;22.83;;;;;;;;;;5070578;28;20048;-79
2022/11/23 04:18:15;;;;;;;55.67;23.40;;;;;;;;;;5054011;28;20552;-79
2022/11/23 04:20:41;;;;;;;49.72;23.65;;;;;;;;;;5070966;28;20045;-79
2022/11/23 04:23:07;;;;;;;51.60;23.65;;;;;;;;;;5073681;28;20036;-77
2022/11/23 04:25:33;;;;;;;48.42;23.02;;;;;;;;;;5074238;28;20067;-78
2022/11/23 04:27:59;;;;;;;54.17;24.63;;;;;;;;;;5073055;28;20123;-78
2022/11/23 04:30:25;;;;;;;50.95;22.52;;;;;;;;;;5075313;28;20051;-78
2022/11/23 04:32:51;;;;;;;53.42;24.15;;;;;;;;;;5074109;28;20045;-79
2022/11/23 04:35:18;;;;;;;48.03;21.30;;;;;;;;;;5073836;28;20405;-78
2022/11/23 04:37:44;;;;;;;48.28;23.63;;;;;;;;;;5074170;28;20037;-78
2022/11/23 04:40:10;;;;;;;51.83;23.92;;;;;;;;;;5057213;28;20122;-79
2022/11/23 04:42:36;;;;;;;46.97;22.45;;;;;;;;;;5074330;28;20094;-78
2022/11/23 04:45:03;;;;;;;53.97;24.05;;;;;;;;;;5073821;28;20068;-79
2022/11/23 04:47:29;;;;;;;47.00;22.75;;;;;;;;;;5073849;28;20469;-79
2022/11/23 04:49:55;;;;;;;45.22;22.02;;;;;;;;;;5074083;28;20123;-79
2022/11/23 04:52:21;;;;;;;47.60;22.48;;;;;;;;;;5073479;28;20036;-79
2022/11/23 04:54:47;;;;;;;51.17;23.05;;;;;;;;;;5057328;28;20033;-79
2022/11/23 04:57:13;;;;;;;46.28;21.77;;;;;;;;;;5060051;28;20040;-77
2022/11/23 04:59:39;;;;;;;46.75;23.02;;;;;;;;;;5057330;28;20044;-78
2022/11/23 05:02:05;;;;;;;50.35;23.40;;;;;;;;;;5053929;28;20134;-78
2022/11/23 05:04:33;;;;;;;46.75;21.83;;;;;;;;;;5073677;28;20615;-78
2022/11/23 05:06:59;;;;;;;44.28;21.48;;;;;;;;;;5074550;28;20084;-78
2022/11/23 05:09:25;;;;;;;44.70;22.42;;;;;;;;;;5073655;28;20485;-78
2022/11/23 05:11:51;;;;;;;42.72;20.40;;;;;;;;;;5108084;28;20056;-78
2022/11/23 05:14:17;;;;;;;42.70;20.95;;;;;;;;;;5073858;28;20032;-77
2022/11/23 05:16:43;;;;;;;42.13;20.77;;;;;;;;;;5073822;28;20048;-79
2022/11/23 05:19:09;;;;;;;40.05;21.02;;;;;;;;;;5075069;28;20076;-78
2022/11/23 05:21:35;;;;;;;42.67;20.80;;;;;;;;;;5057640;28;20116;-79
2022/11/23 05:24:01;;;;;;;39.83;19.30;;;;;;;;;;5059789;28;20048;-79
2022/11/23 05:26:27;;;;;;;43.38;20.10;;;;;;;;;;5071096;28;20062;-80
2022/11/23 05:28:53;;;;;;;40.25;19.60;;;;;;;;;;5073780;28;20045;-79
2022/11/23 05:31:20;;;;;;;35.83;16.77;;;;;;;;;;5056746;28;20044;-79
2022/11/23 05:33:46;;;;;;;34.65;18.80;;;;;;;;;;5074487;28;20105;-79
2022/11/23 05:36:12;;;;;;;35.75;17.52;;;;;;;;;;5073620;28;20048;-80
2022/11/23 05:38:39;;;;;;;34.25;17.58;;;;;;;;;;5083938;28;20045;-80
2022/11/23 05:41:05;;;;;;;33.08;17.73;;;;;;;;;;5092310;28;20059;-78
2022/11/23 05:43:32;;;;;;;33.75;16.98;;;;;;;;;;5089927;28;20050;-78
2022/11/23 05:45:59;;;;;;;37.30;17.67;;;;;;;;;;5074534;28;20051;-79
2022/11/23 05:48:25;;;;;;;33.20;17.17;;;;;;;;;;5060949;28;20090;-80
2022/11/23 05:50:51;;;;;;;35.75;16.67;;;;;;;;;;5057367;28;20116;-80
2022/11/23 05:53:17;;;;;;;34.20;17.02;;;;;;;;;;5073384;28;20123;-79
2022/11/23 05:55:44;;;;;;;32.15;15.45;;;;;;;;;;5056281;28;20072;-79
2022/11/23 05:58:10;;;;;;;31.45;16.13;;;;;;;;;;5062094;28;20052;-80
2022/11/23 06:00:36;;;;;;;30.85;16.38;;;;;;;;;;5102995;28;20481;-80
2022/11/23 06:03:03;;;;;;;31.52;15.45;;;;;;;;;;5073911;28;20041;-79
2022/11/23 06:05:29;;;;;;;33.47;15.98;;;;;;;;;;5072524;28;20494;-78
2022/11/23 06:07:55;;;;;;;28.77;14.65;;;;;;;;;;5049525;28;20094;-80
2022/11/23 06:10:22;;;;;;;31.15;15.00;;;;;;;;;;5067291;28;20374;-79
2022/11/23 06:12:48;;;;;;;31.95;15.23;;;;;;;;;;5067678;28;20044;-78
2022/11/23 06:15:15;;;;;;;28.80;14.13;;;;;;;;;;5063907;28;20040;-78
2022/11/23 06:17:41;;;;;;;31.00;13.68;;;;;;;;;;5073571;28;20040;-79
2022/11/23 06:20:07;;;;;;;27.83;14.27;;;;;;;;;;5057242;28;20082;-79
2022/11/23 06:22:34;;;;;;;29.92;13.20;;;;;;;;;;5074031;28;20493;-79
2022/11/23 06:25:00;;;;;;;24.90;13.00;;;;;;;;;;5052528;28;20496;-79
2022/11/23 06:27:26;;;;;;;26.15;12.70;;;;;;;;;;5072445;28;20110;-78
2022/11/23 06:29:52;;;;;;;24.77;11.40;;;;;;;;;;5070982;28;20040;-79
2022/11/23 06:32:18;;;;;;;27.05;12.13;;;;;;;;;;5071880;28;20051;-79
2022/11/23 06:34:45;;;;;;;20.15;10.80;;;;;;;;;;5071725;28;20048;-79
2022/11/23 06:37:11;;;;;;;21.17;10.82;;;;;;;;;;5071802;28;20032;-79
2022/11/23 06:39:37;;;;;;;19.13;10.05;;;;;;;;;;5054973;28;20592;-78
2022/11/23 06:42:03;;;;;;;24.55;9.98;;;;;;;;;;5072001;28;20451;-79
2022/11/23 06:44:29;;;;;;;18.17;9.07;;;;;;;;;;5054668;28;20048;-79
2022/11/23 06:46:55;;;;;;;21.02;9.60;;;;;;;;;;5072674;28;20051;-78
2022/11/23 06:49:22;;;;;;;22.08;9.40;;;;;;;;;;5071669;28;20539;-78
2022/11/23 06:51:48;;;;;;;17.48;8.85;;;;;;;;;;5054548;28;20044;-78
2022/11/23 06:54:14;;;;;;;20.33;9.15;;;;;;;;;;5055198;28;20375;-79
2022/11/23 06:56:40;;;;;;;19.95;9.20;;;;;;;;;;5071124;28;20051;-79
2022/11/23 06:59:06;;;;;;;19.38;8.93;;;;;;;;;;5072895;28;20396;-79
2022/11/23 07:01:32;;;;;;;22.95;9.57;;;;;;;;;;5071363;28;20052;-79
2022/11/23 07:03:58;;;;;;;18.33;9.10;;;;;;;;;;5071159;28;20127;-78
2022/11/23 07:06:25;;;;;;;20.52;8.63;;;;;;;;;;5046069;28;20048;-79
2022/11/23 07:08:51;;;;;;;21.80;9.32;;;;;;;;;;5065484;28;20036;-78
2022/11/23 07:11:17;;;;;;;17.25;8.65;;;;;;;;;;5054822;28;20033;-79
2022/11/23 07:13:43;;;;;;;19.40;9.32;;;;;;;;;;5071207;28;20056;-79
2022/11/23 07:16:09;;;;;;;20.60;9.70;;;;;;;;;;5054706;28;20511;-78
2022/11/23 07:18:35;;;;;;;21.17;9.13;;;;;;;;;;5060213;28;20444;-79
2022/11/23 07:21:01;;;;;;;23.02;9.13;;;;;;;;;;5051359;28;20342;-79
2022/11/23 07:23:27;;;;;;;20.08;8.45;;;;;;;;;;5071192;28;20036;-79
2022/11/23 07:25:53;;;;;;;18.83;8.77;;;;;;;;;;5054520;28;20509;-79
2022/11/23 07:28:19;;;;;;;21.00;8.90;;;;;;;;;;5069861;28;20094;-78
2022/11/23 07:30:45;;;;;;;20.52;8.88;;;;;;;;;;5071098;28;20516;-78
2022/11/23 07:33:12;;;;;;;19.23;8.57;;;;;;;;;;5057967;28;20045;-78
2022/11/23 07:35:39;;;;;;;20.75;8.55;;;;;;;;;;5071087;28;20049;-78
2022/11/23 07:38:07;;;;;;;23.58;8.88;;;;;;;;;;5058635;28;20041;-78
2022/11/23 07:40:34;;;;;;;20.05;8.45;;;;;;;;;;5071750;28;20097;-79
2022/11/23 07:43:00;;;;;;;22.85;8.73;;;;;;;;;;5071239;28;20040;-79
2022/11/23 07:45:27;;;;;;;18.38;8.00;;;;;;;;;;5071207;28;20435;-78
2022/11/23 07:48:04;;;;;;;20.65;7.50;;;;;;;;;;5070957;28;20386;-79
2022/11/23 07:50:30;;;;;;;17.65;7.80;;;;;;;;;;5070780;28;20067;-79
2022/11/23 07:52:56;;;;;;;18.23;8.23;;;;;;;;;;5054044;28;20051;-79
2022/11/23 07:55:23;;;;;;;15.68;6.82;;;;;;;;;;5072081;28;20468;-78
2022/11/23 07:57:53;;;;;;;17.55;7.22;;;;;;;;;;5073834;28;20052;-79
2022/11/23 08:00:19;;;;;;;18.05;7.43;;;;;;;;;;5074775;28;20066;-78
2022/11/23 08:02:45;;;;;;;20.88;7.32;;;;;;;;;;5057806;28;20033;-78
2022/11/23 08:05:12;;;;;;;15.50;6.85;;;;;;;;;;5074564;28;20037;-80
2022/11/23 08:07:38;;;;;;;15.93;6.55;;;;;;;;;;5074048;28;20040;-79
2022/11/23 08:10:05;;;;;;;16.10;6.90;;;;;;;;;;5058069;28;20123;-79
2022/11/23 08:12:31;;;;;;;17.13;6.93;;;;;;;;;;5074593;28;20048;-79
2022/11/23 08:14:57;;;;;;;18.88;6.45;;;;;;;;;;5074750;28;20075;-79
2022/11/23 08:17:23;;;;;;;14.60;6.57;;;;;;;;;;5061695;28;20068;-79
2022/11/23 08:19:49;;;;;;;15.90;6.32;;;;;;;;;;5074110;28;20036;-79
2022/11/23 08:22:15;;;;;;;20.10;6.45;;;;;;;;;;5074448;28;20040;-79
2022/11/23 08:24:41;;;;;;;15.57;5.85;;;;;;;;;;5059969;28;20120;-79
2022/11/23 08:27:07;;;;;;;17.70;6.55;;;;;;;;;;5074320;28;20044;-79
2022/11/23 08:29:34;;;;;;;13.85;5.97;;;;;;;;;;5073213;28;20072;-79
2022/11/23 08:32:00;;;;;;;17.63;6.22;;;;;;;;;;5052382;28;20037;-79
2022/11/23 08:34:26;;;;;;;15.15;5.65;;;;;;;;;;5054601;28;20095;-79
2022/11/23 08:36:52;;;;;;;15.85;6.22;;;;;;;;;;5071347;28;20044;-79
2022/11/23 08:39:18;;;;;;;12.27;5.13;;;;;;;;;;5064985;28;20049;-79
2022/11/23 08:41:44;;;;;;;10.45;5.03;;;;;;;;;;5053929;28;20048;-79
2022/11/23 08:44:11;;;;;;;15.90;4.93;;;;;;;;;;5061794;28;20094;-79
2022/11/23 08:46:37;;;;;;;15.88;5.30;;;;;;;;;;5057341;28;20131;-79
2022/11/23 08:49:04;;;;;;;15.63;5.00;;;;;;;;;;5074022;28;20048;-79
2022/11/23 08:51:30;;;;;;;14.60;5.03;;;;;;;;;;5057596;28;20040;-79
2022/11/23 08:53:56;;;;;;;17.73;5.07;;;;;;;;;;5057423;28;20477;-79
2022/11/23 08:56:22;;;;;;;18.23;5.30;;;;;;;;;;5108351;28;20362;-79
2022/11/23 08:58:48;;;;;;;10.15;4.03;;;;;;;;;;5059697;28;20124;-79
2022/11/23 09:01:15;;;;;;;11.80;4.30;;;;;;;;;;5074331;28;20454;-79
2022/11/23 09:03:41;;;;;;;15.80;4.43;;;;;;;;;;5074931;28;20132;-79
2022/11/23 09:06:08;;;;;;;14.73;4.20;;;;;;;;;;5057628;28;20052;-80
2022/11/23 09:08:34;;;;;;;13.82;3.90;;;;;;;;;;5073508;28;20068;-80
2022/11/23 09:11:01;;;;;;;11.48;3.90;;;;;;;;;;5059715;28;20033;-79
2022/11/23 09:13:28;;;;;;;13.18;3.67;;;;;;;;;;5073658;28;20036;-79
2022/11/23 09:16:01;;;;;;;12.63;4.03;;;;;;;;;;5056655;28;20052;-79
2022/11/23 09:18:29;;;;;;;12.52;4.35;;;;;;;;;;5063919;28;20076;-79
2022/11/23 09:20:55;;;;;;;15.75;4.30;;;;;;;;;;5052808;28;20485;-79
2022/11/23 09:23:22;;;;;;;15.05;4.70;;;;;;;;;;5057038;28;20135;-79
2022/11/23 09:25:49;;;;;;;12.98;4.00;;;;;;;;;;5042363;28;20052;-79
2022/11/23 09:28:18;;;;;;;15.90;4.38;;;;;;;;;;5068798;28;20508;-79
2022/11/23 09:30:45;;;;;;;11.15;4.25;;;;;;;;;;5065605;28;20040;-79
2022/11/23 09:33:11;;;;;;;13.38;5.00;;;;;;;;;;5067767;28;20060;-79
2022/11/23 09:35:37;;;;;;;18.00;5.07;;;;;;;;;;5066506;28;20498;-80
2022/11/23 09:38:03;;;;;;;12.50;4.40;;;;;;;;;;5065917;28;20123;-79
2022/11/23 09:40:31;;;;;;;21.35;5.88;;;;;;;;;;5059183;28;20127;-79
2022/11/23 09:42:57;;;;;;;13.27;4.50;;;;;;;;;;5073020;28;20481;-79
2022/11/23 09:45:29;;;;;;;16.90;6.68;;;;;;;;;;5074161;28;20064;-79
2022/11/23 09:48:14;;;;;;;18.33;4.78;;;;;;;;;;5073062;28;20430;-79
2022/11/23 09:50:46;;;;;;;17.70;6.00;;;;;;;;;;5055509;28;20119;-80
2022/11/23 09:53:15;;;;;;;17.90;5.60;;;;;;;;;;5052854;28;20033;-79
2022/11/23 09:55:43;;;;;;;18.13;5.60;;;;;;;;;;5071274;28;20043;-79
2022/11/23 09:58:15;;;;;;;13.55;4.95;;;;;;;;;;5072854;28;20558;-79
2022/11/23 10:00:48;;;;;;;18.77;6.55;;;;;;;;;;5074239;28;20071;-79
2022/11/23 10:03:15;;;;;;;18.75;5.15;;;;;;;;;;5062858;28;20549;-79
2022/11/23 10:05:43;;;;;;;19.17;4.80;;;;;;;;;;5069382;28;20037;-79
2022/11/23 10:08:30;;;;;;;13.50;4.15;;;;;;;;;;5072238;28;20063;-79
2022/11/23 10:10:59;;;;;;;13.43;4.55;;;;;;;;;;5068336;28;20094;-78
2022/11/23 10:13:31;;;;;;;14.20;5.45;;;;;;;;;;5062738;28;20119;-78
2022/11/23 10:16:13;;;;;;;15.07;5.03;;;;;;;;;;5059370;28;20492;-79
2022/11/23 10:18:42;;;;;;;17.20;4.85;;;;;;;;;;5060511;28;20502;-78
2022/11/23 10:21:11;;;;;;;17.85;4.97;;;;;;;;;;5069342;28;20115;-79
2022/11/23 10:23:53;;;;;;;11.68;4.28;;;;;;;;;;5055530;28;20044;-79
2022/11/23 10:26:20;;;;;;;16.58;5.15;;;;;;;;;;5068164;28;20048;-79
2022/11/23 10:28:47;;;;;;;16.10;4.03;;;;;;;;;;5055448;28;20116;-80
2022/11/23 10:31:15;;;;;;;14.73;4.45;;;;;;;;;;5071897;28;20389;-79
2022/11/23 10:33:49;;;;;;;15.30;3.85;;;;;;;;;;5071695;28;20072;-78
2022/11/23 10:36:16;;;;;;;19.98;4.95;;;;;;;;;;5059813;28;20084;-79
2022/11/23 10:38:42;;;;;;;16.90;4.22;;;;;;;;;;5067442;28;20048;-79
2022/11/23 10:41:09;;;;;;;14.02;3.55;;;;;;;;;;5073001;28;20443;-80
2022/11/23 10:43:38;;;;;;;17.23;3.53;;;;;;;;;;5072232;28;20040;-78
2022/11/23 10:46:26;;;;;;;15.43;5.18;;;;;;;;;;5067552;28;20045;-79
2022/11/23 10:48:53;;;;;;;16.77;3.60;;;;;;;;;;5049804;28;20443;-79
2022/11/23 10:51:25;;;;;;;16.95;3.85;;;;;;;;;;5055882;28;20515;-80
2022/11/23 10:54:00;;;;;;;15.13;2.95;;;;;;;;;;5071576;28;20073;-80
2022/11/23 10:56:27;;;;;;;14.60;3.13;;;;;;;;;;5071831;28;20404;-80
2022/11/23 10:58:53;;;;;;;13.35;2.90;;;;;;;;;;5061676;28;20536;-79
2022/11/23 11:01:23;;;;;;;16.25;3.40;;;;;;;;;;5053745;28;20106;-80
2022/11/23 11:03:49;;;;;;;13.38;2.67;;;;;;;;;;5055128;28;20061;-80
2022/11/23 11:06:42;;;;;;;12.15;2.90;;;;;;;;;;5054754;28;20561;-80
2022/11/23 11:09:18;;;;;;;9.73;2.30;;;;;;;;;;5072050;28;20080;-78
2022/11/23 11:11:49;;;;;;;10.25;2.35;;;;;;;;;;5072049;28;20040;-80
2022/11/23 11:14:17;;;;;;;13.38;2.63;;;;;;;;;;5062297;28;20120;-80
2022/11/23 11:16:50;;;;;;;17.33;2.78;;;;;;;;;;5068672;28;20041;-80
2022/11/23 11:19:33;;;;;;;11.48;3.20;;;;;;;;;;5064073;28;20510;-80
2022/11/23 11:22:00;;;;;;;12.65;2.88;;;;;;;;;;5055010;28;20052;-80
2022/11/23 11:24:35;;;;;;;13.13;2.70;;;;;;;;;;5071360;28;20366;-80
2022/11/23 11:27:03;;;;;;;13.18;2.75;;;;;;;;;;5048293;28;20509;-80
2022/11/23 11:29:29;;;;;;;13.20;2.75;;;;;;;;;;5047334;28;20493;-80
2022/11/23 11:31:58;;;;;;;11.10;2.50;;;;;;;;;;5056967;28;20035;-80
2022/11/23 11:34:28;;;;;;;15.20;2.53;;;;;;;;;;5059839;28;20049;-79
2022/11/23 11:36:59;;;;;;;12.05;2.20;;;;;;;;;;5051790;28;20052;-79
2022/11/23 11:39:30;;;;;;;13.77;2.90;;;;;;;;;;5051347;28;20044;-79
2022/11/23 11:41:57;;;;;;;12.63;2.90;;;;;;;;;;5049258;28;20513;-79
2022/11/23 11:44:24;;;;;;;12.05;2.92;;;;;;;;;;5051794;28;20128;-79
2022/11/23 11:46:57;;;;;;;18.63;3.45;;;;;;;;;;5053496;28;20052;-78
2022/11/23 11:49:25;;;;;;;13.30;2.95;;;;;;;;;;5064799;28;20076;-80
2022/11/23 11:51:54;;;;;;;10.60;2.33;;;;;;;;;;5066234;28;20040;-79
2022/11/23 11:54:24;;;;;;;16.10;2.55;;;;;;;;;;5070918;28;20066;-79
2022/11/23 11:56:51;;;;;;;12.27;2.63;;;;;;;;;;5071786;28;20044;-79
2022/11/23 11:59:17;;;;;;;11.65;1.98;;;;;;;;;;5066784;28;20090;-79
2022/11/23 12:01:50;;;;;;;13.57;2.13;;;;;;;;;;5063813;28;20097;-81
2022/11/23 12:04:35;;;;;;;10.43;2.28;;;;;;;;;;5054963;28;20507;-79
2022/11/23 12:07:04;;;;;;;13.88;2.63;;;;;;;;;;5072034;28;20124;-79
2022/11/23 12:09:32;;;;;;;12.57;2.05;;;;;;;;;;5072572;28;20097;-79
2022/11/23 12:11:58;;;;;;;12.95;2.58;;;;;;;;;;5075145;28;20040;-79
2022/11/23 12:14:25;;;;;;;11.05;2.05;;;;;;;;;;5056688;28;20051;-79
2022/11/23 12:17:01;;;;;;;11.52;1.85;;;;;;;;;;5071815;28;20044;-79
2022/11/23 12:19:46;;;;;;;9.88;1.98;;;;;;;;;;5070563;28;20033;-79
2022/11/23 12:22:18;;;;;;;8.05;1.98;;;;;;;;;;5054181;28;20516;-78
2022/11/23 12:24:56;;;;;;;13.93;2.40;;;;;;;;;;5070730;28;20121;-79
2022/11/23 12:27:22;;;;;;;14.43;2.30;;;;;;;;;;5053881;28;20048;-79
2022/11/23 12:29:58;;;;;;;12.48;2.22;;;;;;;;;;5070796;28;20032;-79
2022/11/23 12:32:29;;;;;;;11.25;1.65;;;;;;;;;;5072206;28;20056;-79
2022/11/23 12:35:11;;;;;;;14.30;2.35;;;;;;;;;;5054577;28;20053;-79
2022/11/23 12:37:50;;;;;;;13.98;2.10;;;;;;;;;;5054763;28;20443;-79
2022/11/23 12:40:28;;;;;;;10.88;2.15;;;;;;;;;;5070285;28;20052;-79
2022/11/23 12:43:01;;;;;;;8.20;1.73;;;;;;;;;;5072438;28;20040;-79
2022/11/23 12:45:31;;;;;;;10.05;1.80;;;;;;;;;;5074617;28;20037;-80
2022/11/23 12:48:02;;;;;;;11.85;1.85;;;;;;;;;;5065046;28;20045;-79
2022/11/23 12:50:30;;;;;;;11.82;1.92;;;;;;;;;;5054307;28;20036;-80
2022/11/23 12:53:00;;;;;;;13.13;2.25;;;;;;;;;;5064414;28;20068;-79
2022/11/23 12:55:27;;;;;;;8.65;1.73;;;;;;;;;;5053387;28;20033;-80
2022/11/23 12:58:11;;;;;;;9.80;1.55;;;;;;;;;;5067097;28;20073;-79
2022/11/23 13:00:41;;;;;;;10.75;1.52;;;;;;;;;;5072673;28;20062;-79
2022/11/23 13:03:24;;;;;;;9.68;1.85;;;;;;;;;;5074480;28;20032;-79
2022/11/23 13:05:50;;;;;;;9.35;1.85;;;;;;;;;;5056992;28;20036;-79
2022/11/23 13:08:31;;;;;;;10.13;1.67;;;;;;;;;;5074360;28;20036;-79
2022/11/23 13:11:10;;;;;;;9.15;1.88;;;;;;;;;;5070326;28;20041;-79
2022/11/23 13:13:36;;;;;;;10.77;1.90;;;;;;;;;;5069790;28;20086;-79
2022/11/23 13:16:12;;;;;;;7.65;1.33;;;;;;;;;;5057273;28;20531;-80
2022/11/23 13:18:52;;;;;;;10.63;2.15;;;;;;;;;;5077885;28;20378;-81
2022/11/23 13:21:21;;;;;;;10.18;2.13;;;;;;;;;;5069841;28;20052;-79
2022/11/23 13:23:48;;;;;;;10.73;1.77;;;;;;;;;;5066159;28;20547;-79
2022/11/23 13:26:18;;;;;;;9.65;1.48;;;;;;;;;;5071678;28;20045;-79
2022/11/23 13:28:45;;;;;;;9.93;1.58;;;;;;;;;;5061465;28;20051;-80
2022/11/23 13:31:14;;;;;;;8.75;2.17;;;;;;;;;;5075194;28;20098;-78
2022/11/23 13:33:42;;;;;;;10.85;1.70;;;;;;;;;;5057998;28;20535;-81
2022/11/23 13:36:12;;;;;;;7.78;1.60;;;;;;;;;;5073928;28;20131;-79
2022/11/23 13:38:40;;;;;;;10.43;1.90;;;;;;;;;;5069601;28;20040;-79
2022/11/23 13:41:24;;;;;;;8.02;1.50;;;;;;;;;;5053489;28;20047;-79
2022/11/23 13:43:51;;;;;;;12.82;1.88;;;;;;;;;;5072073;28;20052;-80
2022/11/23 13:46:27;;;;;;;11.05;2.30;;;;;;;;;;5073043;28;20040;-79
2022/11/23 13:49:00;;;;;;;8.60;1.45;;;;;;;;;;5073400;28;20041;-80
2022/11/23 13:51:28;;;;;;;10.57;1.50;;;;;;;;;;5072722;28;20044;-80
2022/11/23 13:54:14;;;;;;;9.60;1.70;;;;;;;;;;5068265;28;20037;-80
2022/11/23 13:56:43;;;;;;;7.22;1.60;;;;;;;;;;5064298;28;20040;-80
2022/11/23 13:59:36;;;;;;;10.85;1.70;;;;;;;;;;5051712;28;20424;-80
2022/11/23 14:02:09;;;;;;;9.63;1.30;;;;;;;;;;5099431;28;20080;-79
2022/11/23 14:04:37;;;;;;;8.98;1.55;;;;;;;;;;5072940;28;20449;-79
2022/11/23 14:07:16;;;;;;;8.02;1.50;;;;;;;;;;5058865;28;20060;-79
2022/11/23 14:09:49;;;;;;;10.70;1.67;;;;;;;;;;5049428;28;20033;-79
2022/11/23 14:12:31;;;;;;;9.02;2.03;;;;;;;;;;5072325;28;20089;-79
2022/11/23 14:15:16;;;;;;;8.35;1.60;;;;;;;;;;5056184;28;20040;-79
2022/11/23 14:18:00;;;;;;;8.93;1.90;;;;;;;;;;5059273;28;20048;-79
2022/11/23 14:20:40;;;;;;;9.65;2.10;;;;;;;;;;5072374;28;20394;-79
2022/11/23 14:23:06;;;;;;;8.10;1.90;;;;;;;;;;5066790;28;20444;-78
2022/11/23 14:25:39;;;;;;;11.73;2.03;;;;;;;;;;5065800;28;20493;-79
2022/11/23 14:28:23;;;;;;;8.55;1.50;;;;;;;;;;5070073;28;20040;-79
2022/11/23 14:31:11;;;;;;;6.43;1.80;;;;;;;;;;5062481;28;20147;-79
2022/11/23 14:33:37;;;;;;;9.10;1.90;;;;;;;;;;5058562;28;20052;-79